Impacts METAR Board
IDs:

KMCO - Orlando Intl, FL, US

Updated at: 2100 UTC 15 Oct 2018
Potential Impact None Slight Moderate High
Time 15/09Z 15/10Z 15/11Z 15/12Z 15/13Z 15/14Z 15/15Z 15/16Z 15/17Z 15/18Z 15/19Z 15/20Z 15/21Z
Temp75 75 75 75 79 82 84 85 87 89 90 91 90
Dewpt74 73 74 74 76 75 74 74 73 70 71 72 73
Altim30.07 30.08 30.09 30.10 30.12 30.12 30.12 30.11 30.09 30.07 30.06 30.05 30.05
VIS10 10 10 10 10 10 10 10 10 10 10 10 10
CIG-- -- -- -- -- -- -- -- -- -- -- -- --
CoverFEWFEWFEWFEWFEWFEWSCTSCTSCTSCTSCTSCTSCT
FltCatVFRVFRVFRVFRVFRVFRVFRVFRVFRVFRVFRVFRVFR
WX--------------------------
WDir0090800012000100010080
WSpd0 0 3 3 0 4 4 0 3 5 5 10 8
WGst-- -- -- -- -- -- -- -- -- -- -- -- --
Raw hourly METARs
KMCO 150853Z 00000KT 10SM FEW025 24/23 A3007 RMK AO2 SLP181 T02390233 55004
KMCO 150953Z 00000KT 10SM FEW025 24/23 A3008 RMK AO2 SLP185 T02390228
KMCO 151053Z 09003KT 10SM FEW025 FEW250 24/23 A3009 RMK AO2 SLP186 T02390233
KMCO 151153Z 08003KT 10SM FEW025 24/23 A3010 RMK AO2 SLP191 T02390233 10244 20233 53010
KMCO 151253Z 00000KT 10SM FEW025 26/24 A3012 RMK AO2 SLP196 T02610244
KMCO 151353Z VRB04KT 10SM FEW012 28/24 A3012 RMK AO2 SLP197 T02780239
KMCO 151453Z 12004KT 10SM SCT021 29/23 A3012 RMK AO2 SLP198 T02890233 51006
KMCO 151553Z 00000KT 10SM SCT027 29/23 A3011 RMK AO2 SLP194 T02940233
KMCO 151653Z VRB03KT 10SM SCT034 31/23 A3009 RMK AO2 SLP188 T03060228
KMCO 151753Z 10005KT 10SM SCT040 32/21 A3007 RMK AO2 SLP181 T03170211 10322 20239 58016
KMCO 151853Z VRB05KT 10SM SCT040 32/22 A3006 RMK AO2 SLP176 T03220217
KMCO 151953Z 10010KT 10SM SCT040 33/22 A3005 RMK AO2 SLP172 T03280222
KMCO 152053Z 08008KT 10SM SCT042 32/23 A3005 RMK AO2 SLP174 T03220228 55007



Page loaded:  21:26 UTC  |   02:26 PM Pacific  |   03:26 PM Mountain  |   04:26 PM Central  |   05:26 PM Eastern

 

ADVISORIES

FORECASTS

FORECASTS

OBSERVATIONS

USER TOOLS

ABOUT US